Latest Weather Observations for Samuel Hill

IDQ60801

Issued at 9:32 am EST Wednesday 29 June 2016 (issued every 30 minutes, with the page automatically refreshed every 10 minutes)

About weather observations | Map of weather stations | Latest weather observations for QLD | Other Formats
Station Details ID: 033308 Name: SAMUEL HILL AERO Lat: -22.74 Lon: 150.66 Height: 31.0 m
Data from the previous 72 hours. | See also: Recent months at Samuel Hill
Date/Time
EST
Temp
°C
App
Temp
°C
Dew
Point
°C
Rel
Hum
%
Delta-T
°C
Wind Press
QNH
hPa
Press
MSL
hPa
Rain since
9am
mm
Dir  Spd
km/h
Gust
km/h
Spd
kts
Gust
kts
29/09:30am 14.5 11.1 6.1 57 4.0 S 13 19 7 10 1025.8 1025.8 0.0
29/09:00am 13.0 10.6 6.8 66 3.0 SSW 9 13 5 7 1026.1 1026.1 0.2
29/08:30am 11.2 8.7 6.7 74 2.1 SW 9 13 5 7 1026.0 1026.0 0.2
29/08:00am 9.3 7.3 6.4 82 1.3 SW 6 9 3 5 1025.9 1025.9 0.2
29/07:30am 7.2 6.4 6.6 96 0.3 CALM 0 0 0 0 1025.6 1025.6 0.2
29/07:00am 4.4 3.0 3.7 95 0.3 CALM 0 0 0 0 1025.4 1025.4 0.2
29/06:30am 3.5 1.9 2.6 94 0.4 CALM 0 0 0 0 1024.8 1024.8 0.2
29/06:00am 3.7 1.0 2.8 94 0.4 SSE 6 9 3 5 1024.5 1024.5 0.2
29/05:30am 4.0 1.2 3.3 95 0.3 SSW 7 9 4 5 1024.3 1024.3 0.0
29/05:00am 3.6 2.0 2.7 94 0.4 CALM 0 4 0 2 1024.2 1024.2 0.0
29/04:30am 4.1 1.3 3.2 94 0.4 SSE 7 9 4 5 1024.0 1024.0 0.0
29/04:00am 4.2 1.5 3.5 95 0.3 S 7 7 4 4 1024.2 1024.2 0.0
29/03:30am 4.7 1.7 4.0 95 0.3 SSW 9 11 5 6 1024.2 1024.2 0.0
29/03:00am 4.0 2.5 3.1 94 0.4 CALM 0 0 0 0 1024.0 1024.0 0.0
29/02:30am 4.3 2.9 3.4 94 0.4 CALM 0 0 0 0 1024.2 1024.2 0.0
29/02:00am 4.2 2.7 3.2 93 0.4 CALM 0 0 0 0 1024.2 1024.2 0.0
29/01:30am 4.6 2.8 3.7 94 0.4 WNW 2 7 1 4 1024.5 1024.5 0.0
29/01:00am 5.2 3.6 4.3 94 0.4 NW 2 7 1 4 1024.5 1024.5 0.0
29/12:30am 4.9 3.6 3.9 93 0.4 CALM 0 0 0 0 1024.5 1024.5 0.0
29/12:00am 5.0 3.7 4.0 93 0.4 CALM 0 0 0 0 1024.5 1024.5 0.0
 
Date/Time
EST
Temp
°C
App
Temp
°C
Dew
Point
°C
Rel
Hum
%
Delta-T
°C
Wind Press
QNH
hPa
Press
MSL
hPa
Rain since
9am
mm
Dir  Spd
km/h
Gust
km/h
Spd
kts
Gust
kts
28/11:30pm 5.7 4.5 4.7 93 0.4 CALM 0 0 0 0 1024.4 1024.4 0.0
28/11:00pm 5.8 4.6 4.8 93 0.4 CALM 0 6 0 3 1024.4 1024.4 0.0
28/10:30pm 5.9 4.3 4.7 92 0.5 NNE 2 9 1 5 1024.4 1024.4 0.0
28/10:00pm 6.0 3.7 4.6 91 0.6 NNE 6 9 3 5 1024.3 1024.3 0.0
28/09:30pm 6.6 5.5 5.2 91 0.6 CALM 0 0 0 0 1024.0 1024.0 0.0
28/09:00pm 7.0 5.6 5.5 90 0.7 N 2 9 1 5 1024.0 1024.0 0.0
28/08:30pm 7.0 4.6 5.3 89 0.8 NNE 7 11 4 6 1024.1 1024.1 0.0
28/08:00pm 7.5 6.5 5.6 88 0.8 CALM 0 0 0 0 1024.0 1024.0 0.0
28/07:30pm 8.3 7.4 5.9 85 1.1 CALM 0 0 0 0 1023.8 1023.8 0.0
28/07:00pm 8.7 6.9 5.3 79 1.5 SW 4 7 2 4 1023.5 1023.5 0.0
28/06:30pm 12.6 9.9 5.5 62 3.3 SSW 9 13 5 7 1023.0 1023.0 0.0
28/06:00pm 13.8 10.1 4.7 54 4.2 SSW 13 15 7 8 1022.5 1022.5 0.0
28/05:30pm 14.9 11.2 4.6 50 4.8 SSW 13 19 7 10 1022.1 1022.1 0.0
28/05:00pm 16.1 13.2 4.8 47 5.3 SSW 9 17 5 9 1021.7 1021.7 0.0
28/04:30pm 16.9 13.7 4.9 45 5.7 SSW 11 22 6 12 1021.5 1021.5 0.0
28/04:00pm 17.2 13.5 4.5 43 6.0 S 13 22 7 12 1021.2 1021.2 0.0
28/03:30pm 17.3 13.6 4.6 43 6.0 SSE 13 20 7 11 1020.9 1020.8 0.0
28/03:00pm 17.3 13.2 4.6 43 6.0 S 15 22 8 12 1020.8 1020.7 0.0
28/02:30pm 17.2 12.4 4.5 43 6.0 S 19 28 10 15 1020.9 1020.8 0.0
28/02:00pm 17.5 13.2 5.1 44 5.9 S 17 30 9 16 1020.8 1020.7 0.0
28/01:30pm 16.8 12.1 5.1 46 5.6 S 19 28 10 15 1020.9 1020.8 0.0
28/01:00pm 16.4 12.0 4.8 46 5.5 SSE 17 24 9 13 1021.4 1021.4 0.0
28/12:30pm 15.6 11.5 4.6 48 5.2 S 15 22 8 12 1021.9 1021.9 0.0
28/12:00pm 15.2 10.9 5.1 51 4.7 SSE 17 26 9 14 1022.2 1022.2 0.0
28/11:30am 14.7 10.7 5.0 52 4.6 SSE 15 24 8 13 1022.5 1022.5 0.0
28/11:00am 14.1 9.9 3.8 50 4.7 SSE 15 24 8 13 1022.9 1022.9 0.0
28/10:30am 13.3 8.8 4.2 54 4.2 SSE 17 28 9 15 1023.1 1023.1 0.0
28/10:00am 13.0 8.5 4.2 55 4.0 SSE 17 26 9 14 1023.3 1023.3 0.0
28/09:30am 12.5 8.8 4.5 58 3.6 S 13 20 7 11 1023.2 1023.2 0.0
28/09:00am 11.8 8.2 5.0 63 3.1 S 13 20 7 11 1023.4 1023.4 1.6
28/08:30am 11.1 7.9 5.0 66 2.8 SSW 11 22 6 12 1023.2 1023.2 1.6
28/08:00am 10.4 9.3 5.0 69 2.4 CALM 0 0 0 0 1022.9 1022.9 1.6
28/07:30am 9.1 8.2 6.2 82 1.3 CALM 0 0 0 0 1022.7 1022.7 1.6
28/07:00am 6.8 4.0 5.3 90 0.7 NNE 9 9 5 5 1022.2 1022.2 1.6
28/06:30am 6.6 4.6 4.6 87 0.9 WSW 4 7 2 4 1021.8 1021.8 1.6
28/06:00am 7.9 6.1 5.5 85 1.1 SSW 4 7 2 4 1021.3 1021.3 1.6
28/05:30am 8.7 6.5 5.4 80 1.5 W 6 9 3 5 1020.9 1020.8 1.6
28/05:00am 8.6 7.0 6.2 85 1.1 WNW 4 9 2 5 1020.8 1020.7 1.6
28/04:30am 9.1 8.3 6.5 84 1.2 CALM 0 0 0 0 1020.6 1020.5 1.6
28/04:00am 10.5 8.8 6.1 74 2.0 S 4 7 2 4 1020.4 1020.3 1.6
28/03:30am 11.5 8.6 6.4 71 2.4 S 11 15 6 8 1020.2 1020.1 1.6
28/03:00am 12.0 9.2 7.1 72 2.3 S 11 17 6 9 1020.2 1020.1 1.6
28/02:30am 12.4 9.8 7.7 73 2.3 S 11 17 6 9 1020.1 1020.0 1.6
28/02:00am 12.9 10.4 8.2 73 2.3 S 11 17 6 9 1020.0 1019.9 1.6
28/01:30am 13.3 10.9 8.8 74 2.3 S 11 20 6 11 1020.0 1019.9 1.6
28/01:00am 13.9 11.5 10.1 78 2.0 S 13 19 7 10 1020.1 1020.0 1.6
28/12:30am 14.5 12.2 10.3 76 2.2 S 13 19 7 10 1019.8 1019.7 1.6
28/12:00am 15.2 13.3 11.8 80 1.8 S 13 20 7 11 1019.6 1019.5 1.6
 
Date/Time
EST
Temp
°C
App
Temp
°C
Dew
Point
°C
Rel
Hum
%
Delta-T
°C
Wind Press
QNH
hPa
Press
MSL
hPa
Rain since
9am
mm
Dir  Spd
km/h
Gust
km/h
Spd
kts
Gust
kts
27/11:30pm 15.5 14.4 13.2 86 1.3 SSE 11 17 6 9 1019.4 1019.3 1.6
27/11:00pm 15.6 14.3 13.6 88 1.1 S 13 17 7 9 1019.3 1019.2 1.6
27/10:30pm 16.0 15.2 14.0 88 1.1 SSE 11 15 6 8 1019.1 1019.0 1.6
27/10:00pm 15.6 15.7 13.8 89 1.0 SSW 6 7 3 4 1018.8 1018.7 1.6
27/09:30pm 15.9 16.6 14.4 91 0.9 S 4 7 2 4 1018.8 1018.7 1.6
27/09:00pm 16.4 18.0 14.8 90 0.9 CALM 0 0 0 0 1018.6 1018.5 1.6
27/08:30pm 17.2 17.8 15.7 91 0.9 SSW 7 11 4 6 1018.4 1018.3 1.6
27/08:00pm 15.2 15.0 13.7 91 0.8 ESE 7 9 4 5 1018.2 1018.1 1.6
27/07:30pm 15.7 16.9 13.9 89 1.0 CALM 0 6 0 3 1017.8 1017.7 1.6
27/07:00pm 16.7 17.4 14.5 87 1.3 NE 4 7 2 4 1017.3 1017.2 1.6
27/06:30pm 18.1 18.3 15.7 86 1.4 SW 9 11 5 6 1017.0 1016.9 1.6
27/06:00pm 18.8 19.1 15.9 83 1.7 SW 9 13 5 7 1016.6 1016.5 1.6
27/05:30pm 19.3 19.6 16.0 81 2.0 SW 9 13 5 7 1016.3 1016.2 1.6
27/05:00pm 20.3 20.0 16.5 79 2.3 SW 13 20 7 11 1015.7 1015.6 1.6
27/04:30pm 21.7 22.0 17.1 75 2.8 WSW 11 15 6 8 1015.3 1015.2 1.6
27/04:00pm 21.9 21.9 17.1 74 2.9 W 13 17 7 9 1015.1 1015.0 1.6
27/03:30pm 21.3 20.8 16.9 76 2.7 WSW 15 20 8 11 1015.0 1014.9 1.6
27/03:00pm 20.1 19.8 16.5 80 2.2 WSW 13 20 7 11 1015.2 1015.1 1.6
27/02:30pm 21.0 19.8 17.0 78 2.4 WSW 19 28 10 15 1015.0 1014.9 1.6
27/02:00pm 19.5 18.9 16.7 84 1.7 WSW 15 24 8 13 1015.0 1014.9 1.6
27/01:30pm 19.1 18.6 16.9 87 1.3 WSW 15 22 8 12 1015.3 1015.2 1.6
27/01:00pm 18.0 17.6 16.3 90 1.0 WSW 13 17 7 9 1015.5 1015.4 1.6
27/12:48pm 18.1 17.0 16.3 89 1.1 WSW 17 28 9 15 1015.6 1015.5 1.4
27/12:44pm 18.0 16.5 16.3 90 1.0 WSW 19 28 10 15 1015.7 1015.6 1.4
27/12:30pm 17.8 16.6 16.0 89 1.1 WSW 17 26 9 14 1015.8 1015.7 1.2
27/12:29pm 17.8 16.5 15.8 88 1.2 WSW 17 26 9 14 1015.8 1015.7 1.2
27/12:26pm 18.1 16.5 15.9 87 1.3 WSW 19 28 10 15 1015.8 1015.7 0.4
27/12:00pm 21.7 24.7 18.5 82 2.0 CALM 0 0 0 0 1015.6 1015.5 0.0
27/11:30am 21.7 23.2 17.7 78 2.5 N 6 7 3 4 1016.0 1015.9 0.0
27/11:00am 21.2 23.8 17.4 79 2.3 CALM 0 4 0 2 1016.3 1016.2 0.0
27/10:30am 19.9 21.6 17.1 84 1.7 WSW 4 11 2 6 1016.7 1016.6 0.0
27/10:00am 18.9 21.1 16.5 86 1.4 CALM 0 0 0 0 1016.8 1016.7 0.0
27/09:30am 18.1 20.3 16.4 90 1.0 CALM 0 0 0 0 1016.7 1016.6 0.0
27/09:00am 16.5 18.3 15.4 93 0.6 CALM 0 0 0 0 1016.6 1016.5 0.0
27/08:30am 16.2 17.5 15.2 94 0.6 WNW 2 6 1 3 1016.5 1016.4 0.0
27/08:00am 14.9 16.2 14.1 95 0.5 CALM 0 0 0 0 1016.5 1016.4 0.0
27/07:46am 14.5 15.7 13.7 95 0.4 CALM 0 0 0 0 1016.5 1016.4 0.0
27/07:30am 14.3 15.4 13.5 95 0.4 CALM 0 0 0 0 1016.6 1016.5 0.0
27/07:09am 13.7 14.6 12.9 95 0.4 CALM 0 0 0 0 1016.7 1016.6 0.0
27/07:00am 13.5 14.3 12.7 95 0.4 CALM 0 0 0 0 1016.7 1016.6 0.0
27/06:30am 13.1 13.8 12.3 95 0.4 CALM 0 0 0 0 1016.6 1016.5 0.0
27/06:00am 12.6 13.2 11.8 95 0.4 CALM 0 0 0 0 1015.9 1015.8 0.0
27/05:30am 11.9 12.2 11.0 94 0.5 CALM 0 0 0 0 1015.9 1015.8 0.0
27/05:00am 11.3 11.5 10.4 94 0.5 CALM 0 0 0 0 1015.9 1015.8 0.0
27/04:30am 11.7 12.0 10.8 94 0.5 CALM 0 0 0 0 1015.7 1015.6 0.0
27/04:00am 11.2 11.3 10.1 93 0.6 CALM 0 0 0 0 1015.5 1015.4 0.0
27/03:30am 11.0 11.0 9.9 93 0.6 CALM 0 0 0 0 1015.7 1015.6 0.0
27/03:00am 11.4 11.6 10.5 94 0.5 CALM 0 0 0 0 1015.8 1015.7 0.0
27/02:30am 11.0 11.0 9.8 92 0.6 CALM 0 0 0 0 1015.6 1015.5 0.0
27/02:00am 11.2 11.3 10.0 92 0.6 CALM 0 0 0 0 1016.0 1015.9 0.0
27/01:30am 11.5 11.7 10.4 93 0.6 CALM 0 0 0 0 1016.2 1016.1 0.0
27/01:00am 11.2 11.3 10.0 92 0.6 CALM 0 0 0 0 1016.6 1016.5 0.0
27/12:30am 11.7 11.9 10.4 92 0.7 CALM 0 0 0 0 1016.9 1016.8 0.0
27/12:00am 11.7 11.9 10.4 92 0.7 CALM 0 0 0 0 1016.7 1016.6 0.0
 
Date/Time
EST
Temp
°C
App
Temp
°C
Dew
Point
°C
Rel
Hum
%
Delta-T
°C
Wind Press
QNH
hPa
Press
MSL
hPa
Rain since
9am
mm
Dir  Spd
km/h
Gust
km/h
Spd
kts
Gust
kts
26/11:30pm 12.0 11.9 10.9 93 0.6 SW 2 7 1 4 1016.9 1016.8 0.0
26/11:00pm 12.5 12.9 11.4 93 0.6 CALM 0 0 0 0 1017.0 1016.9 0.0
26/10:30pm 12.0 12.2 10.6 91 0.7 CALM 0 0 0 0 1017.1 1017.0 0.0
26/10:00pm 12.6 12.9 11.0 90 0.8 CALM 0 0 0 0 1017.5 1017.4 0.0
26/09:30pm 12.4 12.7 10.8 90 0.8 CALM 0 0 0 0 1017.8 1017.7 0.0
26/09:00pm 13.1 13.6 11.5 90 0.8 CALM 0 0 0 0 1018.2 1018.1 0.0
26/08:30pm 13.2 13.6 11.3 88 1.0 CALM 0 0 0 0 1018.1 1018.0 0.0
26/08:00pm 13.5 13.9 11.4 87 1.1 CALM 0 0 0 0 1018.2 1018.1 0.0
26/07:30pm 14.2 14.7 11.7 85 1.3 CALM 0 0 0 0 1017.9 1017.8 0.0
26/07:00pm 15.6 15.2 12.9 84 1.5 SSW 7 9 4 5 1017.2 1017.1 0.0
26/06:30pm 16.1 15.8 13.2 83 1.6 S 7 9 4 5 1016.8 1016.7 0.0
26/06:00pm 16.5 16.2 13.2 81 1.8 S 7 9 4 5 1016.6 1016.5 0.0
26/05:30pm 17.3 17.0 13.2 77 2.3 SSE 7 9 4 5 1016.4 1016.3 0.0
26/05:00pm 18.2 17.5 13.3 73 2.8 ESE 9 13 5 7 1016.4 1016.3 0.0
26/04:30pm 19.1 17.7 13.3 69 3.3 SE 13 17 7 9 1016.2 1016.1 0.0
26/04:00pm 19.6 18.0 12.8 65 3.8 SE 13 17 7 9 1016.0 1015.9 0.0
26/03:30pm 19.4 17.8 12.7 65 3.8 ESE 13 19 7 10 1016.2 1016.1 0.0
26/03:00pm 20.1 18.1 12.8 63 4.1 SE 15 20 8 11 1016.3 1016.2 0.0
26/02:30pm 19.8 18.1 12.6 63 4.1 ESE 13 20 7 11 1016.5 1016.4 0.0
26/02:00pm 20.5 19.3 12.7 61 4.4 SE 11 19 6 10 1016.6 1016.5 0.0
26/01:30pm 20.0 18.3 12.5 62 4.2 ESE 13 20 7 11 1016.9 1016.8 0.0
26/01:00pm 19.7 17.6 12.5 63 4.0 ESE 15 24 8 13 1017.5 1017.4 0.0
26/12:30pm 20.6 18.9 12.6 60 4.5 ESE 13 17 7 9 1018.0 1017.9 0.0
26/12:00pm 19.8 17.7 12.3 62 4.2 SE 15 22 8 12 1018.6 1018.5 0.0
26/11:30am 19.7 17.8 11.7 60 4.4 SE 13 24 7 13 1019.2 1019.1 0.0
26/11:00am 19.4 17.1 11.7 61 4.2 SSE 15 24 8 13 1019.5 1019.4 0.0
26/10:30am 18.9 16.8 11.2 61 4.2 SSE 13 19 7 10 1019.6 1019.5 0.0
26/10:00am 17.0 14.0 9.2 60 4.0 SSE 15 22 8 12 1020.0 1019.9 0.0

Other Formats:

Comma delimited format used in spreadsheet applications
http://www.bom.gov.au/fwo/IDQ60801/IDQ60801.94370.axf

JavaScript Object Notation format (JSON) in row-major order
http://www.bom.gov.au/fwo/IDQ60801/IDQ60801.94370.json